createdAt,value
2023-01-31T00:00:09.869Z,37.60
2023-01-31T00:02:36.363Z,37.63
2023-01-31T00:05:02.594Z,37.67
2023-01-31T00:07:29.053Z,37.68
2023-01-31T00:09:55.393Z,37.71
2023-01-31T00:12:21.783Z,37.74
2023-01-31T00:14:48.120Z,37.75
2023-01-31T00:17:14.514Z,37.75
2023-01-31T00:19:40.865Z,37.82
2023-01-31T00:22:07.244Z,37.83
2023-01-31T00:24:33.587Z,37.87
2023-01-31T00:26:59.977Z,37.88
2023-01-31T00:29:27.263Z,37.92
2023-01-31T00:31:52.760Z,37.95
2023-01-31T00:34:19.048Z,37.95
2023-01-31T00:36:45.464Z,37.96
2023-01-31T00:39:11.807Z,37.97
2023-01-31T00:41:38.621Z,38.06
2023-01-31T00:44:04.610Z,38.03
2023-01-31T00:46:31.031Z,38.01
2023-01-31T00:48:57.359Z,38.13
2023-01-31T00:51:25.593Z,38.13
2023-01-31T00:53:50.087Z,38.15
2023-01-31T00:56:16.503Z,38.11
2023-01-31T00:58:42.835Z,38.13
2023-01-31T01:01:09.262Z,38.17
2023-01-31T01:03:35.553Z,38.20
2023-01-31T01:06:01.975Z,38.23
2023-01-31T01:08:28.319Z,38.28
2023-01-31T01:10:54.711Z,38.30
2023-01-31T01:13:21.051Z,38.33
2023-01-31T01:15:47.451Z,38.32
2023-01-31T01:18:13.781Z,38.33
2023-01-31T01:20:40.165Z,38.33
2023-01-31T01:23:06.506Z,38.31
2023-01-31T01:25:32.885Z,38.35
2023-01-31T01:27:59.227Z,38.37
2023-01-31T01:30:25.621Z,38.47
2023-01-31T01:32:51.966Z,38.47
2023-01-31T01:35:18.640Z,38.47
2023-01-31T01:37:44.699Z,38.48
2023-01-31T01:40:11.121Z,38.50
2023-01-31T01:42:37.466Z,38.54
2023-01-31T01:45:03.856Z,38.54
2023-01-31T01:47:30.383Z,38.59
2023-01-31T01:49:56.589Z,38.60
2023-01-31T01:52:22.929Z,38.61
2023-01-31T01:54:49.350Z,38.64
2023-01-31T01:57:17.405Z,38.68
2023-01-31T01:59:42.105Z,38.69
2023-01-31T02:02:08.489Z,38.68
2023-01-31T02:04:34.875Z,38.70
2023-01-31T02:07:01.218Z,38.69
2023-01-31T02:09:27.707Z,38.70
2023-01-31T02:11:53.959Z,38.77
2023-01-31T02:14:20.336Z,38.81
2023-01-31T02:16:46.699Z,38.78
2023-01-31T02:19:13.070Z,38.83
2023-01-31T02:21:39.411Z,38.79
2023-01-31T02:24:05.808Z,38.82
2023-01-31T02:26:32.173Z,38.84
2023-01-31T02:28:58.539Z,38.81
2023-01-31T02:31:25.264Z,38.87
2023-01-31T02:33:51.268Z,38.90
2023-01-31T02:36:17.611Z,38.91
2023-01-31T02:38:44.027Z,38.94
2023-01-31T02:41:10.400Z,38.89
2023-01-31T02:43:36.808Z,38.95
2023-01-31T02:46:03.198Z,38.96
2023-01-31T02:48:29.648Z,38.92
2023-01-31T02:50:55.981Z,38.95
2023-01-31T02:53:22.586Z,39.00
2023-01-31T02:55:48.715Z,38.92
2023-01-31T02:58:15.099Z,38.96
2023-01-31T03:00:41.436Z,38.92
2023-01-31T03:03:07.856Z,38.96
2023-01-31T03:05:34.284Z,39.03
2023-01-31T03:08:00.805Z,38.95
2023-01-31T03:10:27.144Z,38.89
2023-01-31T03:12:53.528Z,38.70
2023-01-31T03:15:20.247Z,38.57
2023-01-31T03:17:46.288Z,38.44
2023-01-31T03:20:12.624Z,38.38
2023-01-31T03:22:39.003Z,38.38
2023-01-31T03:25:05.348Z,38.34
2023-01-31T03:27:31.728Z,38.21
2023-01-31T03:29:58.070Z,38.16
2023-01-31T03:32:24.499Z,38.01
2023-01-31T03:34:50.834Z,37.90
2023-01-31T03:37:17.821Z,37.81
2023-01-31T03:39:43.622Z,37.68
2023-01-31T03:42:10.064Z,37.62
2023-01-31T03:44:36.401Z,37.53
2023-01-31T03:47:02.835Z,37.48
2023-01-31T03:49:29.179Z,37.35
2023-01-31T03:51:55.562Z,37.23
2023-01-31T03:54:21.929Z,37.15
2023-01-31T03:56:48.311Z,37.05
2023-01-31T03:59:14.674Z,37.00
2023-01-31T04:01:41.127Z,36.90
2023-01-31T04:04:07.402Z,36.86
2023-01-31T04:06:33.785Z,36.75
2023-01-31T04:09:00.123Z,36.66
2023-01-31T04:11:26.520Z,36.67
2023-01-31T04:13:52.853Z,36.53
2023-01-31T04:16:19.253Z,36.50
2023-01-31T04:18:46.690Z,36.43
2023-01-31T04:21:11.979Z,36.35
2023-01-31T04:23:38.313Z,36.34
2023-01-31T04:26:04.697Z,36.27
2023-01-31T04:28:31.037Z,36.14
2023-01-31T04:30:57.426Z,36.15
2023-01-31T04:33:23.763Z,36.03
2023-01-31T04:35:50.144Z,35.91
2023-01-31T04:38:16.479Z,35.81
2023-01-31T04:40:42.866Z,35.81
2023-01-31T04:43:09.335Z,35.70
2023-01-31T04:45:35.628Z,35.58
2023-01-31T04:48:01.963Z,35.42
2023-01-31T04:50:28.378Z,35.28
2023-01-31T04:52:54.712Z,35.11
2023-01-31T04:55:21.445Z,34.96
2023-01-31T04:57:47.436Z,34.95
2023-01-31T05:00:13.821Z,34.79
2023-01-31T05:02:40.209Z,34.77
2023-01-31T05:05:06.938Z,34.32
2023-01-31T05:07:32.897Z,34.05
2023-01-31T05:09:59.291Z,34.37
2023-01-31T05:12:25.625Z,34.16
2023-01-31T05:14:52.018Z,34.16
2023-01-31T05:17:18.353Z,33.51
2023-01-31T05:19:44.816Z,33.51
2023-01-31T05:22:11.151Z,35.39
2023-01-31T05:24:37.534Z,33.96
2023-01-31T05:27:03.893Z,34.29
2023-01-31T05:29:30.267Z,33.88
2023-01-31T05:31:56.654Z,33.79
2023-01-31T05:34:23.019Z,33.92
2023-01-31T05:36:49.353Z,33.93
2023-01-31T05:39:15.813Z,34.19
2023-01-31T05:41:42.182Z,34.33
2023-01-31T05:44:08.559Z,34.45
2023-01-31T05:54:51.832Z,34.05
2023-01-31T05:57:18.171Z,34.09
2023-01-31T05:59:44.565Z,33.91
2023-01-31T06:02:10.921Z,33.78
2023-01-31T06:04:37.282Z,33.59
2023-01-31T06:07:03.623Z,33.48
2023-01-31T06:09:30.050Z,33.41
2023-01-31T06:11:56.392Z,33.36
2023-01-31T06:14:22.783Z,33.37
2023-01-31T06:16:49.189Z,33.33
2023-01-31T06:19:15.530Z,33.45
2023-01-31T06:21:41.873Z,33.53
2023-01-31T06:24:08.257Z,33.70
2023-01-31T06:26:34.621Z,33.85
2023-01-31T06:29:00.984Z,33.85
2023-01-31T06:31:27.403Z,33.80
2023-01-31T06:33:53.724Z,33.80
2023-01-31T06:36:20.078Z,33.49
2023-01-31T06:38:46.490Z,33.51
2023-01-31T06:41:12.859Z,33.33
2023-01-31T06:43:39.257Z,33.25
2023-01-31T06:46:05.630Z,33.28
2023-01-31T06:48:31.984Z,33.10
2023-01-31T06:50:58.339Z,33.16
2023-01-31T06:53:24.727Z,33.25
2023-01-31T06:55:51.068Z,33.47
2023-01-31T06:58:20.365Z,33.59
2023-01-31T07:00:43.800Z,33.65
2023-01-31T07:03:10.187Z,33.58
2023-01-31T07:05:36.550Z,33.53
2023-01-31T07:08:02.930Z,33.58
2023-01-31T07:10:29.355Z,33.63
2023-01-31T07:12:55.654Z,33.49
2023-01-31T07:15:22.479Z,33.56
2023-01-31T07:17:48.385Z,33.49
2023-01-31T07:20:14.738Z,33.26
2023-01-31T07:22:41.121Z,33.32
2023-01-31T07:25:07.478Z,33.28
2023-01-31T07:27:33.863Z,33.14
2023-01-31T07:30:00.190Z,33.74
2023-01-31T07:32:26.588Z,33.35
2023-01-31T07:34:52.926Z,33.46
2023-01-31T07:37:19.405Z,33.54
2023-01-31T07:39:45.750Z,33.52
2023-01-31T07:42:12.137Z,33.47
2023-01-31T07:44:38.495Z,33.57
2023-01-31T07:47:04.901Z,33.76
2023-01-31T07:49:31.292Z,33.76
2023-01-31T07:51:57.664Z,33.90
2023-01-31T07:54:23.999Z,33.93
2023-01-31T07:56:50.399Z,33.88
2023-01-31T07:59:16.743Z,33.85
2023-01-31T08:01:43.146Z,33.78
2023-01-31T08:04:20.435Z,34.00
2023-01-31T08:06:35.887Z,33.62
2023-01-31T08:09:02.235Z,33.56
2023-01-31T08:11:28.628Z,33.64
2023-01-31T08:13:54.993Z,33.53
2023-01-31T08:16:21.363Z,33.35
2023-01-31T08:18:47.716Z,33.70
2023-01-31T08:21:14.104Z,33.52
2023-01-31T08:23:40.474Z,33.70
2023-01-31T08:26:06.867Z,33.68
2023-01-31T08:28:33.210Z,33.68
2023-01-31T08:31:08.707Z,33.68
2023-01-31T08:33:25.946Z,33.78
2023-01-31T08:35:52.334Z,33.58
2023-01-31T08:41:01.475Z,33.37
2023-01-31T08:43:27.871Z,33.58
2023-01-31T08:45:54.342Z,33.56
2023-01-31T08:48:20.740Z,33.51
2023-01-31T08:50:47.081Z,33.24
2023-01-31T08:53:13.483Z,33.67
2023-01-31T08:55:39.863Z,33.51
2023-01-31T08:58:06.277Z,33.57
2023-01-31T09:00:32.638Z,33.76
2023-01-31T09:02:59.103Z,33.55
2023-01-31T09:05:25.384Z,33.47
2023-01-31T09:07:51.790Z,33.39
2023-01-31T09:10:18.153Z,33.62
2023-01-31T09:12:44.540Z,33.55
2023-01-31T09:15:10.884Z,33.60
2023-01-31T09:17:37.270Z,33.69
2023-01-31T09:20:03.618Z,33.61
2023-01-31T09:22:30.030Z,33.48
2023-01-31T09:24:56.383Z,33.54
2023-01-31T09:27:22.775Z,33.67
2023-01-31T09:29:49.130Z,33.88
2023-01-31T09:32:15.520Z,33.91
2023-01-31T09:34:41.872Z,33.85
2023-01-31T09:37:08.292Z,33.84
2023-01-31T09:39:34.637Z,33.82
2023-01-31T09:42:01.041Z,33.71
2023-01-31T09:44:27.383Z,33.75
2023-01-31T09:46:53.854Z,33.36
2023-01-31T09:49:20.146Z,33.55
2023-01-31T09:51:46.546Z,33.57
2023-01-31T09:54:12.894Z,33.49
2023-01-31T09:56:39.275Z,33.28
2023-01-31T09:59:06.834Z,33.28
2023-01-31T10:01:32.013Z,33.36
2023-01-31T10:03:58.461Z,33.44
2023-01-31T10:06:24.764Z,33.35
2023-01-31T10:08:51.102Z,33.46
2023-01-31T10:11:17.501Z,33.63
2023-01-31T10:13:43.851Z,33.74
2023-01-31T10:16:10.235Z,33.73
2023-01-31T10:18:36.614Z,33.70
2023-01-31T10:21:05.080Z,34.05
2023-01-31T10:23:29.327Z,34.33
2023-01-31T10:25:55.709Z,34.14
2023-01-31T10:28:22.068Z,34.03
2023-01-31T10:30:48.489Z,34.01
2023-01-31T10:33:14.812Z,33.78
2023-01-31T10:35:41.199Z,33.61
2023-01-31T10:38:07.533Z,33.61
2023-01-31T10:40:33.944Z,33.62
2023-01-31T10:43:00.278Z,33.54
2023-01-31T10:45:26.711Z,33.51
2023-01-31T10:47:53.115Z,33.42
2023-01-31T10:50:19.875Z,33.42
2023-01-31T10:52:48.757Z,33.32
2023-01-31T10:55:12.242Z,33.08
2023-01-31T10:57:38.759Z,33.08
2023-01-31T11:00:04.970Z,33.39
2023-01-31T11:02:31.353Z,33.34
2023-01-31T11:04:57.704Z,33.36
2023-01-31T11:07:24.036Z,33.36
2023-01-31T11:09:50.422Z,33.36
2023-01-31T11:12:16.766Z,33.86
2023-01-31T11:14:43.159Z,33.74
2023-01-31T11:17:09.513Z,33.67
2023-01-31T11:19:35.898Z,33.67
2023-01-31T11:22:02.256Z,33.80
2023-01-31T11:24:30.847Z,33.80
2023-01-31T11:26:55.015Z,33.62
2023-01-31T11:29:21.418Z,33.45
2023-01-31T11:31:47.816Z,33.52
2023-01-31T11:34:14.145Z,33.26
2023-01-31T11:36:40.487Z,33.46
2023-01-31T11:39:06.879Z,33.46
2023-01-31T11:41:33.248Z,32.59
2023-01-31T11:43:59.684Z,33.14
2023-01-31T11:46:26.084Z,33.14
2023-01-31T11:48:52.420Z,33.05
2023-01-31T11:51:18.809Z,32.89
2023-01-31T11:53:45.204Z,32.89
2023-01-31T11:56:11.537Z,32.71
2023-01-31T11:58:37.921Z,33.05
2023-01-31T12:01:04.346Z,33.11
2023-01-31T12:03:30.792Z,32.91
2023-01-31T12:05:57.089Z,32.91
2023-01-31T12:08:23.513Z,32.97
2023-01-31T12:10:49.834Z,33.46
2023-01-31T12:13:19.166Z,33.13
2023-01-31T12:15:42.737Z,33.06
2023-01-31T12:18:09.123Z,33.26
2023-01-31T12:20:35.478Z,32.98
2023-01-31T12:23:01.884Z,32.74
2023-01-31T12:25:28.255Z,32.52
2023-01-31T12:27:54.639Z,32.62
2023-01-31T12:30:21.037Z,32.74
2023-01-31T12:32:47.377Z,32.61
2023-01-31T12:35:13.753Z,32.71
2023-01-31T12:37:40.148Z,32.68
2023-01-31T12:40:22.768Z,32.69
2023-01-31T12:42:32.884Z,32.72
2023-01-31T12:44:59.238Z,32.88
2023-01-31T12:47:25.623Z,33.07
2023-01-31T12:49:51.961Z,33.21
2023-01-31T12:52:18.347Z,33.42
2023-01-31T12:54:44.729Z,33.48
2023-01-31T12:57:11.084Z,33.45
2023-01-31T12:59:37.471Z,33.27
2023-01-31T13:02:03.842Z,33.08
2023-01-31T13:04:30.218Z,33.08
2023-01-31T13:06:56.605Z,33.80
2023-01-31T13:09:22.964Z,33.40
2023-01-31T13:11:49.375Z,33.30
2023-01-31T13:14:15.722Z,33.15
2023-01-31T13:16:42.103Z,33.26
2023-01-31T13:19:08.447Z,33.26
2023-01-31T13:21:34.880Z,33.17
2023-01-31T13:24:01.212Z,33.14
2023-01-31T13:26:27.670Z,33.08
2023-01-31T13:28:54.010Z,33.12
2023-01-31T13:31:20.474Z,33.07
2023-01-31T13:33:46.752Z,33.45
2023-01-31T13:36:13.149Z,33.46
2023-01-31T13:38:39.498Z,33.24
2023-01-31T13:41:05.881Z,33.04
2023-01-31T13:43:32.241Z,32.97
2023-01-31T13:45:58.622Z,33.08
2023-01-31T13:48:24.965Z,33.06
2023-01-31T13:50:51.391Z,32.83
2023-01-31T13:53:17.777Z,32.77
2023-01-31T13:55:44.170Z,32.65
2023-01-31T13:58:10.549Z,32.79
2023-01-31T14:00:36.948Z,32.97
2023-01-31T14:03:03.408Z,33.10
2023-01-31T14:05:29.781Z,32.85
2023-01-31T14:07:56.123Z,32.86
2023-01-31T14:10:22.562Z,32.86
2023-01-31T14:12:48.911Z,32.52
2023-01-31T14:15:15.304Z,32.72
2023-01-31T14:17:42.100Z,32.89
2023-01-31T14:20:08.487Z,32.74
2023-01-31T14:22:34.939Z,32.71
2023-01-31T14:25:01.225Z,32.86
2023-01-31T14:27:27.558Z,32.69
2023-01-31T14:29:53.969Z,32.76
2023-01-31T14:32:20.339Z,32.79
2023-01-31T14:34:46.735Z,32.66
2023-01-31T14:37:13.075Z,32.72
2023-01-31T14:39:39.475Z,32.77
2023-01-31T14:42:05.817Z,32.92
2023-01-31T14:44:32.200Z,32.74
2023-01-31T14:47:01.215Z,32.68
2023-01-31T14:49:24.928Z,32.67
2023-01-31T14:51:51.302Z,32.97
2023-01-31T14:54:17.687Z,33.37
2023-01-31T14:56:44.034Z,33.67
2023-01-31T14:59:10.425Z,33.92
2023-01-31T15:01:37.983Z,33.80
2023-01-31T15:04:03.167Z,33.92
2023-01-31T15:06:29.500Z,33.76
2023-01-31T15:08:55.944Z,33.57
2023-01-31T15:11:35.328Z,33.69
2023-01-31T15:13:48.626Z,33.70
2023-01-31T15:16:15.009Z,33.64
2023-01-31T15:18:41.341Z,33.83
2023-01-31T15:21:07.689Z,33.73
2023-01-31T15:23:34.117Z,33.65
2023-01-31T15:26:00.466Z,33.42
2023-01-31T15:28:26.841Z,33.54
2023-01-31T15:30:53.185Z,33.74
2023-01-31T15:33:19.579Z,33.37
2023-01-31T15:35:45.913Z,33.36
2023-01-31T15:38:12.302Z,33.40
2023-01-31T15:40:38.652Z,33.56
2023-01-31T15:43:05.037Z,33.72
2023-01-31T15:45:31.381Z,33.93
2023-01-31T15:47:57.774Z,33.87
2023-01-31T15:50:24.116Z,33.89
2023-01-31T15:52:50.510Z,33.94
2023-01-31T15:55:16.857Z,33.87
2023-01-31T15:57:43.276Z,33.76
2023-01-31T16:00:09.653Z,33.67
2023-01-31T16:02:36.152Z,33.57
2023-01-31T16:05:02.668Z,33.48
2023-01-31T16:07:29.053Z,33.36
2023-01-31T16:09:55.407Z,33.35
2023-01-31T16:12:21.794Z,33.35
2023-01-31T16:14:48.132Z,33.43
2023-01-31T16:17:14.519Z,33.72
2023-01-31T16:19:40.909Z,33.62
2023-01-31T16:22:07.245Z,33.62
2023-01-31T16:24:34.877Z,33.38
2023-01-31T16:27:00.037Z,33.53
2023-01-31T16:29:26.422Z,33.71
2023-01-31T16:31:53.011Z,33.88
2023-01-31T16:34:19.173Z,33.90
2023-01-31T16:36:45.518Z,33.93
2023-01-31T16:39:11.923Z,33.74
2023-01-31T16:41:38.289Z,33.76
2023-01-31T16:44:04.686Z,33.50
2023-01-31T16:46:31.093Z,33.41
2023-01-31T16:48:57.428Z,33.33
2023-01-31T16:51:23.774Z,33.57
2023-01-31T16:53:51.418Z,33.60
2023-01-31T16:56:16.542Z,33.66
2023-01-31T16:58:43.021Z,33.79
2023-01-31T17:01:09.391Z,33.57
2023-01-31T17:03:36.367Z,33.47
2023-01-31T17:06:02.094Z,33.44
2023-01-31T17:08:28.506Z,33.32
2023-01-31T17:10:54.849Z,33.36
2023-01-31T17:13:21.279Z,33.44
2023-01-31T17:15:47.644Z,33.45
2023-01-31T17:18:13.998Z,33.75
2023-01-31T17:20:40.347Z,33.91
2023-01-31T17:23:06.739Z,34.00
2023-01-31T17:25:33.125Z,33.95
2023-01-31T17:27:59.464Z,33.79
2023-01-31T17:30:25.844Z,33.61
2023-01-31T17:32:52.237Z,33.61
2023-01-31T17:35:19.020Z,33.81
2023-01-31T17:37:44.965Z,33.80
2023-01-31T17:40:11.324Z,33.63
2023-01-31T17:42:37.703Z,33.42
2023-01-31T17:45:04.062Z,33.36
2023-01-31T17:47:30.487Z,33.28
2023-01-31T17:49:56.901Z,33.40
2023-01-31T17:52:23.241Z,33.51
2023-01-31T17:54:49.610Z,33.40
2023-01-31T17:57:16.026Z,33.46
2023-01-31T17:59:42.344Z,33.51
2023-01-31T18:02:08.737Z,33.65
2023-01-31T18:04:35.102Z,33.71
2023-01-31T18:07:01.586Z,33.95
2023-01-31T18:09:27.940Z,33.88
2023-01-31T18:11:54.333Z,33.91
2023-01-31T18:14:20.684Z,33.63
2023-01-31T18:16:48.813Z,33.72
2023-01-31T18:19:13.441Z,33.47
2023-01-31T18:21:46.805Z,33.36
2023-01-31T18:24:06.163Z,33.44
2023-01-31T18:26:32.729Z,33.49
2023-01-31T18:28:58.977Z,33.61
2023-01-31T18:31:25.518Z,33.74
2023-01-31T18:33:51.737Z,33.64
2023-01-31T18:36:18.127Z,33.46
2023-01-31T18:38:44.485Z,33.34
2023-01-31T18:41:10.874Z,33.33
2023-01-31T18:43:37.221Z,33.35
2023-01-31T18:46:04.853Z,33.49
2023-01-31T18:48:30.071Z,33.65
2023-01-31T18:50:57.466Z,33.77
2023-01-31T18:53:22.842Z,33.68
2023-01-31T18:55:49.239Z,33.78
2023-01-31T18:58:15.582Z,33.83
2023-01-31T19:00:42.026Z,33.70
2023-01-31T19:03:09.557Z,33.70
2023-01-31T19:05:34.719Z,33.87
2023-01-31T19:08:01.069Z,33.86
2023-01-31T19:10:27.457Z,33.75
2023-01-31T19:12:53.811Z,33.77
2023-01-31T19:15:20.467Z,33.80
2023-01-31T19:17:46.553Z,33.80
2023-01-31T19:20:12.945Z,33.93
2023-01-31T19:22:39.293Z,33.95
2023-01-31T19:25:05.741Z,34.00
2023-01-31T19:27:32.062Z,33.97
2023-01-31T19:29:58.457Z,34.02
2023-01-31T19:32:24.816Z,34.00
2023-01-31T19:34:53.918Z,34.03
2023-01-31T19:37:18.794Z,34.07
2023-01-31T19:39:43.992Z,34.07
2023-01-31T19:42:10.333Z,34.13
2023-01-31T19:44:36.734Z,34.16
2023-01-31T19:47:03.081Z,34.16
2023-01-31T19:49:29.471Z,34.20
2023-01-31T19:51:55.817Z,34.25
2023-01-31T19:54:22.208Z,34.27
2023-01-31T19:56:48.579Z,34.34
2023-01-31T19:59:15.001Z,34.35
2023-01-31T20:01:41.337Z,34.38
2023-01-31T20:04:07.779Z,34.44
2023-01-31T20:06:34.125Z,34.45
2023-01-31T20:09:00.519Z,34.48
2023-01-31T20:11:26.857Z,34.54
2023-01-31T20:13:53.242Z,34.59
2023-01-31T20:16:19.624Z,34.62
2023-01-31T20:18:45.978Z,34.61
2023-01-31T20:21:12.324Z,34.69
2023-01-31T20:23:38.709Z,34.71
2023-01-31T20:26:05.048Z,34.72
2023-01-31T20:28:31.431Z,34.79
2023-01-31T20:30:57.811Z,34.80
2023-01-31T20:33:24.172Z,34.82
2023-01-31T20:35:50.518Z,34.87
2023-01-31T20:38:16.910Z,34.92
2023-01-31T20:40:43.241Z,34.94
2023-01-31T20:43:09.620Z,34.99
2023-01-31T20:45:35.954Z,35.08
2023-01-31T20:48:02.357Z,35.06
2023-01-31T20:50:28.701Z,35.05
2023-01-31T20:52:57.098Z,35.12
2023-01-31T20:55:21.528Z,35.11
2023-01-31T20:57:47.987Z,35.14
2023-01-31T21:00:14.327Z,35.23
2023-01-31T21:02:40.747Z,35.20
2023-01-31T21:05:07.074Z,35.23
2023-01-31T21:07:33.441Z,35.22
2023-01-31T21:09:59.775Z,35.38
2023-01-31T21:12:26.178Z,35.34
2023-01-31T21:14:52.537Z,35.34
2023-01-31T21:17:22.575Z,35.39
2023-01-31T21:19:45.298Z,35.42
2023-01-31T21:22:11.677Z,35.43
2023-01-31T21:24:38.021Z,35.45
2023-01-31T21:27:04.446Z,35.48
2023-01-31T21:29:30.759Z,35.54
2023-01-31T21:31:57.325Z,35.54
2023-01-31T21:34:23.535Z,35.55
2023-01-31T21:36:49.984Z,35.60
2023-01-31T21:39:16.360Z,35.56
2023-01-31T21:41:42.753Z,35.61
2023-01-31T21:44:09.111Z,35.68
2023-01-31T21:46:35.550Z,35.71
2023-01-31T21:49:01.929Z,35.74
2023-01-31T21:51:28.320Z,35.75
2023-01-31T21:53:54.691Z,35.79
2023-01-31T21:56:21.082Z,35.82
2023-01-31T21:58:47.425Z,35.84
2023-01-31T22:01:13.893Z,35.82
2023-01-31T22:03:40.172Z,35.86
2023-01-31T22:06:06.552Z,35.91
2023-01-31T22:08:32.923Z,35.90
2023-01-31T22:10:59.311Z,35.97
2023-01-31T22:13:25.665Z,35.99
2023-01-31T22:15:52.115Z,35.97
2023-01-31T22:18:18.416Z,36.06
2023-01-31T22:20:44.803Z,36.06
2023-01-31T22:23:11.214Z,36.06
2023-01-31T22:25:37.599Z,36.09
2023-01-31T22:28:03.946Z,36.07
2023-01-31T22:30:31.808Z,36.14
2023-01-31T22:32:56.665Z,36.15
2023-01-31T22:35:23.072Z,36.18
2023-01-31T22:37:49.405Z,36.21
2023-01-31T22:40:15.792Z,36.20
2023-01-31T22:42:42.137Z,36.24
2023-01-31T22:45:08.520Z,36.27
2023-01-31T22:47:34.881Z,36.32
2023-01-31T22:50:01.250Z,36.35
2023-01-31T22:52:27.599Z,36.36
2023-01-31T22:54:53.981Z,36.38
2023-01-31T22:57:20.326Z,36.35
2023-01-31T22:59:46.711Z,36.35
2023-01-31T23:02:13.046Z,36.40
2023-01-31T23:04:39.511Z,36.41
2023-01-31T23:07:05.799Z,36.37
2023-01-31T23:09:32.212Z,36.41
2023-01-31T23:11:58.561Z,36.41
2023-01-31T23:14:24.942Z,36.44
2023-01-31T23:16:51.280Z,36.48
2023-01-31T23:19:17.665Z,36.44
2023-01-31T23:21:43.999Z,36.47
2023-01-31T23:24:10.407Z,36.47
2023-01-31T23:26:38.048Z,36.46
2023-01-31T23:29:03.137Z,36.51
2023-01-31T23:31:29.602Z,36.54
2023-01-31T23:33:55.868Z,36.55
2023-01-31T23:36:22.221Z,36.56
2023-01-31T23:38:48.604Z,36.59
2023-01-31T23:41:14.949Z,36.62
2023-01-31T23:43:41.321Z,36.58
2023-01-31T23:46:07.710Z,36.63
2023-01-31T23:48:34.059Z,36.64
2023-01-31T23:51:00.424Z,36.68
2023-01-31T23:53:28.141Z,36.70
2023-01-31T23:55:53.215Z,36.66
2023-01-31T23:58:19.563Z,36.69
